createdAt,value
2022-11-24T00:01:30.981Z,8.37
2022-11-24T00:04:02.783Z,8.37
2022-11-24T00:06:32.983Z,8.57
2022-11-24T00:09:02.554Z,8.40
2022-11-24T00:11:33.957Z,7.90
2022-11-24T00:14:03.308Z,9.00
2022-11-24T00:16:33.688Z,8.87
2022-11-24T00:19:06.270Z,9.63
2022-11-24T00:21:35.176Z,8.60
2022-11-24T00:24:03.913Z,8.77
2022-11-24T00:26:34.737Z,9.10
2022-11-24T00:29:06.087Z,9.10
2022-11-24T00:31:36.971Z,8.87
2022-11-24T00:34:09.049Z,9.63
2022-11-24T00:36:38.065Z,9.27
2022-11-24T00:39:08.401Z,9.30
2022-11-24T00:41:36.927Z,8.77
2022-11-24T00:44:06.805Z,9.10
2022-11-24T00:46:35.473Z,8.50
2022-11-24T00:49:06.279Z,8.70
2022-11-24T00:51:35.057Z,9.07
2022-11-24T00:54:04.370Z,9.03
2022-11-24T00:56:33.633Z,9.17
2022-11-24T00:59:02.572Z,9.20
2022-11-24T01:01:32.017Z,9.90
2022-11-24T01:04:02.653Z,9.37
2022-11-24T01:06:35.635Z,10.13
2022-11-24T01:09:06.755Z,9.93
2022-11-24T01:12:00.767Z,8.90
2022-11-24T01:14:33.667Z,10.67
2022-11-24T01:17:02.719Z,10.80
2022-11-24T01:19:34.463Z,11.10
2022-11-24T01:22:06.194Z,11.30
2022-11-24T01:24:35.876Z,12.20
2022-11-24T01:27:04.722Z,11.27
2022-11-24T01:29:34.146Z,12.53
2022-11-24T01:32:02.781Z,12.33
2022-11-24T01:34:33.200Z,13.33
2022-11-24T01:37:11.987Z,13.10
2022-11-24T01:39:41.195Z,13.07
2022-11-24T01:42:10.550Z,13.10
2022-11-24T01:44:39.927Z,13.03
2022-11-24T01:47:29.915Z,14.07
2022-11-24T01:50:02.893Z,13.53
2022-11-24T01:52:38.996Z,12.90
2022-11-24T01:55:12.383Z,12.87
2022-11-24T01:57:45.449Z,12.90
2022-11-24T02:00:16.235Z,13.33
2022-11-24T02:02:46.428Z,13.10
2022-11-24T02:05:25.570Z,13.40
2022-11-24T02:08:03.166Z,12.00
2022-11-24T02:10:34.164Z,12.17
2022-11-24T02:13:02.577Z,12.67
2022-11-24T02:15:39.077Z,12.77
2022-11-24T02:18:10.948Z,11.73
2022-11-24T02:21:00.560Z,11.53
2022-11-24T02:23:41.947Z,12.57
2022-11-24T02:26:20.817Z,11.47
2022-11-24T02:28:51.975Z,12.43
2022-11-24T02:31:24.734Z,11.93
2022-11-24T02:33:57.623Z,10.77
2022-11-24T02:36:26.637Z,11.37
2022-11-24T02:38:56.894Z,10.23
2022-11-24T02:41:37.355Z,11.80
2022-11-24T02:44:18.087Z,10.07
2022-11-24T02:47:08.224Z,10.33
2022-11-24T02:49:56.296Z,10.40
2022-11-24T02:52:44.220Z,10.33
2022-11-24T02:55:33.088Z,10.47
2022-11-24T02:58:02.463Z,10.40
2022-11-24T03:00:33.277Z,10.23
2022-11-24T03:03:01.754Z,9.87
2022-11-24T03:05:30.284Z,10.20
2022-11-24T03:07:58.666Z,9.43
2022-11-24T03:10:26.997Z,9.37
2022-11-24T03:12:56.382Z,9.00
2022-11-24T03:15:25.004Z,8.67
2022-11-24T03:17:57.561Z,9.23
2022-11-24T03:20:27.130Z,8.57
2022-11-24T03:22:55.986Z,8.27
2022-11-24T03:25:24.585Z,8.03
2022-11-24T03:27:53.903Z,7.77
2022-11-24T03:30:22.298Z,8.10
2022-11-24T03:32:54.031Z,7.90
2022-11-24T03:35:23.199Z,7.57
2022-11-24T03:37:51.688Z,7.30
2022-11-24T03:40:20.402Z,6.70
2022-11-24T03:42:48.752Z,6.63
2022-11-24T03:45:44.233Z,6.83
2022-11-24T03:48:07.942Z,6.50
2022-11-24T03:50:36.182Z,6.63
2022-11-24T03:53:04.603Z,6.20
2022-11-24T03:55:32.963Z,6.63
2022-11-24T03:58:01.514Z,6.20
2022-11-24T04:00:30.336Z,6.73
2022-11-24T04:02:58.781Z,6.23
2022-11-24T04:05:28.759Z,6.63
2022-11-24T04:07:58.086Z,7.13
2022-11-24T04:10:26.869Z,7.00
2022-11-24T04:12:54.547Z,6.60
2022-11-24T04:15:23.718Z,6.37
2022-11-24T04:17:52.365Z,7.03
2022-11-24T04:20:21.122Z,7.20
2022-11-24T04:22:54.036Z,6.80
2022-11-24T04:25:22.384Z,6.90
2022-11-24T04:27:53.265Z,7.33
2022-11-24T04:30:22.409Z,7.27
2022-11-24T04:32:50.998Z,7.33
2022-11-24T04:35:20.006Z,8.10
2022-11-24T04:37:50.112Z,6.80
2022-11-24T04:40:19.022Z,6.53
2022-11-24T04:42:54.138Z,6.17
2022-11-24T04:45:22.672Z,7.23
2022-11-24T04:47:51.879Z,7.17
2022-11-24T04:50:20.821Z,6.73
2022-11-24T04:52:50.543Z,7.20
2022-11-24T04:55:19.176Z,9.27
2022-11-24T04:57:47.476Z,7.67
2022-11-24T05:00:16.642Z,7.07
2022-11-24T05:02:44.979Z,7.00
2022-11-24T05:05:13.253Z,7.00
2022-11-24T05:07:42.921Z,6.33
2022-11-24T05:10:30.484Z,7.00
2022-11-24T05:12:59.585Z,6.37
2022-11-24T05:15:28.045Z,6.37
2022-11-24T05:17:57.045Z,6.33
2022-11-24T05:20:26.017Z,6.83
2022-11-24T05:22:54.358Z,7.40
2022-11-24T05:25:24.255Z,7.17
2022-11-24T05:27:52.958Z,6.67
2022-11-24T05:30:23.306Z,7.13
2022-11-24T05:32:51.868Z,6.60
2022-11-24T05:35:20.196Z,7.07
2022-11-24T05:37:48.936Z,6.37
2022-11-24T05:40:17.955Z,6.50
2022-11-24T05:42:48.477Z,6.40
2022-11-24T05:45:22.183Z,5.97
2022-11-24T05:47:51.537Z,6.60
2022-11-24T05:50:22.196Z,6.17
2022-11-24T05:52:51.178Z,6.30
2022-11-24T05:55:20.497Z,7.53
2022-11-24T05:57:50.386Z,6.77
2022-11-24T06:00:20.078Z,7.27
2022-11-24T06:02:49.399Z,6.77
2022-11-24T06:05:18.753Z,6.30
2022-11-24T06:07:50.290Z,6.30
2022-11-24T06:10:21.250Z,5.80
2022-11-24T06:12:51.563Z,5.47
2022-11-24T06:15:20.100Z,5.30
2022-11-24T06:17:54.607Z,5.43
2022-11-24T06:20:31.175Z,5.33
2022-11-24T06:23:01.901Z,6.13
2022-11-24T06:25:30.617Z,6.47
2022-11-24T06:28:05.106Z,6.90
2022-11-24T06:30:33.915Z,8.10
2022-11-24T06:33:04.667Z,7.70
2022-11-24T06:35:33.065Z,6.70
2022-11-24T06:38:01.580Z,7.33
2022-11-24T06:40:30.190Z,9.80
2022-11-24T06:43:02.232Z,9.07
2022-11-24T06:45:31.653Z,8.40
2022-11-24T06:48:00.049Z,9.00
2022-11-24T06:50:33.394Z,9.67
2022-11-24T06:53:02.152Z,10.77
2022-11-24T06:55:33.536Z,12.53
2022-11-24T06:58:03.467Z,10.47
2022-11-24T07:00:32.621Z,10.93
2022-11-24T07:03:02.012Z,9.63
2022-11-24T07:05:30.455Z,10.77
2022-11-24T07:08:00.630Z,9.03
2022-11-24T07:10:29.573Z,8.77
2022-11-24T07:12:58.166Z,10.00
2022-11-24T07:15:29.759Z,8.57
2022-11-24T07:17:58.203Z,8.00
2022-11-24T07:20:26.687Z,7.90
2022-11-24T07:22:57.447Z,7.80
2022-11-24T07:25:25.924Z,8.50
2022-11-24T07:27:57.729Z,8.10
2022-11-24T07:30:28.940Z,9.63
2022-11-24T07:33:00.529Z,9.00
2022-11-24T07:35:30.011Z,7.97
2022-11-24T07:38:01.758Z,8.00
2022-11-24T07:40:30.491Z,8.03
2022-11-24T07:43:02.357Z,7.17
2022-11-24T07:45:32.367Z,7.30
2022-11-24T07:48:00.853Z,7.07
2022-11-24T07:50:29.206Z,6.80
2022-11-24T07:53:01.844Z,6.40
2022-11-24T07:55:30.674Z,6.17
2022-11-24T07:58:01.272Z,6.30
2022-11-24T08:00:32.180Z,6.00
2022-11-24T08:03:03.278Z,6.07
2022-11-24T08:05:31.604Z,6.40
2022-11-24T08:08:01.602Z,5.80
2022-11-24T08:10:29.995Z,5.33
2022-11-24T08:13:01.633Z,5.90
2022-11-24T08:15:31.367Z,5.83
2022-11-24T08:18:02.816Z,5.90
2022-11-24T08:20:33.026Z,6.30
2022-11-24T08:23:02.010Z,5.90
2022-11-24T08:25:33.118Z,7.07
2022-11-24T08:28:02.289Z,6.37
2022-11-24T08:30:32.116Z,6.33
2022-11-24T08:33:00.952Z,6.33
2022-11-24T08:35:29.527Z,7.50
2022-11-24T08:38:03.182Z,6.67
2022-11-24T08:40:33.409Z,7.00
2022-11-24T08:43:02.215Z,5.87
2022-11-24T08:45:33.355Z,6.00
2022-11-24T08:48:05.577Z,6.37
2022-11-24T08:50:35.558Z,5.80
2022-11-24T08:53:03.965Z,5.20
2022-11-24T08:55:32.419Z,5.50
2022-11-24T08:58:01.009Z,5.47
2022-11-24T09:00:30.861Z,5.10
2022-11-24T09:03:00.150Z,5.50
2022-11-24T09:05:51.235Z,5.80
2022-11-24T09:08:17.284Z,5.73
2022-11-24T09:10:45.723Z,5.93
2022-11-24T09:13:14.421Z,5.97
2022-11-24T09:15:44.256Z,6.50
2022-11-24T09:18:12.719Z,5.70
2022-11-24T09:20:41.000Z,7.57
2022-11-24T09:23:09.392Z,6.70
2022-11-24T09:25:37.827Z,5.97
2022-11-24T09:28:06.491Z,6.83
2022-11-24T09:30:35.035Z,6.20
2022-11-24T09:33:05.106Z,5.83
2022-11-24T09:35:33.342Z,6.97
2022-11-24T09:38:01.788Z,6.73
2022-11-24T09:40:30.691Z,6.07
2022-11-24T09:43:04.911Z,5.77
2022-11-24T09:46:05.120Z,7.37
2022-11-24T09:48:40.568Z,6.20
2022-11-24T09:51:13.061Z,6.00
2022-11-24T09:53:47.945Z,5.63
2022-11-24T09:56:21.985Z,5.77
2022-11-24T09:58:52.599Z,5.40
2022-11-24T10:01:23.659Z,5.00
2022-11-24T10:03:54.348Z,5.40
2022-11-24T10:06:25.962Z,5.30
2022-11-24T10:09:20.459Z,5.00
2022-11-24T10:11:58.660Z,4.83
2022-11-24T10:14:41.990Z,5.20
2022-11-24T10:17:22.371Z,4.90
2022-11-24T10:19:58.652Z,4.80
2022-11-24T10:22:40.674Z,4.80
2022-11-24T10:25:14.079Z,4.97
2022-11-24T10:27:45.995Z,4.90
2022-11-24T10:30:17.514Z,4.53
2022-11-24T10:32:48.736Z,4.87
2022-11-24T10:35:21.787Z,4.50
2022-11-24T10:37:59.163Z,4.30
2022-11-24T10:43:23.985Z,5.67
2022-11-24T10:45:53.421Z,5.03
2022-11-24T10:48:26.281Z,4.87
2022-11-24T10:51:04.478Z,4.80
2022-11-24T10:53:37.109Z,4.60
2022-11-24T10:56:07.072Z,4.10
2022-11-24T10:58:38.467Z,4.20
2022-11-24T11:01:22.921Z,3.80
2022-11-24T11:03:53.311Z,4.13
2022-11-24T11:06:25.725Z,3.70
2022-11-24T11:09:19.261Z,3.40
2022-11-24T11:11:49.525Z,4.80
2022-11-24T11:14:31.818Z,3.53
2022-11-24T11:17:00.717Z,2.90
2022-11-24T11:19:52.367Z,3.20
2022-11-24T11:22:28.044Z,3.77
2022-11-24T11:25:20.864Z,3.20
2022-11-24T11:27:49.752Z,3.10
2022-11-24T11:36:12.068Z,2.90
2022-11-24T11:38:42.704Z,3.20
2022-11-24T11:41:21.429Z,3.50
2022-11-24T11:43:59.426Z,4.33
2022-11-24T11:46:32.073Z,2.97
2022-11-24T11:49:00.895Z,3.50
2022-11-24T11:52:03.689Z,5.00
2022-11-24T11:54:48.856Z,4.23
2022-11-24T11:57:24.809Z,5.80
2022-11-24T12:00:16.573Z,3.50
2022-11-24T12:03:20.507Z,4.17
2022-11-24T12:06:03.786Z,3.50
2022-11-24T12:09:11.507Z,4.67
2022-11-24T12:11:38.856Z,3.80
2022-11-24T12:14:15.363Z,3.50
2022-11-24T12:16:54.502Z,3.80
2022-11-24T12:19:39.257Z,3.33
2022-11-24T12:22:15.013Z,4.37
2022-11-24T12:24:52.154Z,4.10
2022-11-24T12:27:33.288Z,3.40
2022-11-24T12:30:11.319Z,4.07
2022-11-24T12:33:00.221Z,3.83
2022-11-24T12:35:36.786Z,4.33
2022-11-24T12:38:20.153Z,3.90
2022-11-24T12:41:40.597Z,3.67
2022-11-24T12:44:17.869Z,4.10
2022-11-24T12:46:53.886Z,3.47
2022-11-24T12:49:31.474Z,4.00
2022-11-24T12:52:05.741Z,3.47
2022-11-24T12:54:40.473Z,3.73
2022-11-24T12:57:15.709Z,3.37
2022-11-24T12:59:54.090Z,3.07
2022-11-24T13:02:34.616Z,4.63
2022-11-24T13:05:16.538Z,3.07
2022-11-24T13:07:47.933Z,4.77
2022-11-24T13:13:27.166Z,7.77
2022-11-24T13:19:14.188Z,4.17
2022-11-24T13:22:01.829Z,5.03
2022-11-24T13:24:34.066Z,4.13
2022-11-24T13:27:52.924Z,4.20
2022-11-24T13:30:55.870Z,4.30
2022-11-24T13:33:36.404Z,5.03
2022-11-24T13:36:33.978Z,4.77
2022-11-24T13:39:04.726Z,11.53
2022-11-24T13:42:10.580Z,11.33
2022-11-24T13:44:59.980Z,10.80
2022-11-24T13:47:52.225Z,9.37
2022-11-24T13:50:58.357Z,9.03
2022-11-24T13:53:32.926Z,8.53
2022-11-24T13:56:04.696Z,5.67
2022-11-24T13:58:37.988Z,6.57
2022-11-24T14:01:15.921Z,6.00
2022-11-24T14:04:28.656Z,5.87
2022-11-24T14:06:55.678Z,8.80
2022-11-24T14:09:28.204Z,9.77
2022-11-24T14:12:02.620Z,7.20
2022-11-24T14:14:31.106Z,8.37
2022-11-24T14:17:17.897Z,6.57
2022-11-24T14:19:48.269Z,6.57
2022-11-24T14:22:21.139Z,7.87
2022-11-24T14:24:57.347Z,5.97
2022-11-24T14:27:35.105Z,5.70
2022-11-24T14:30:05.697Z,5.30
2022-11-24T14:32:34.008Z,6.90
2022-11-24T14:35:02.572Z,6.83
2022-11-24T14:37:32.343Z,4.67
2022-11-24T14:40:00.822Z,5.07
2022-11-24T14:42:29.497Z,4.17
2022-11-24T14:44:59.710Z,3.77
2022-11-24T14:47:32.517Z,4.00
2022-11-24T14:50:11.029Z,3.70
2022-11-24T14:52:46.821Z,4.00
2022-11-24T14:55:29.376Z,3.80
2022-11-24T14:57:58.499Z,3.90
2022-11-24T15:00:29.682Z,3.47
2022-11-24T15:03:16.008Z,6.33
2022-11-24T15:05:58.608Z,5.77
2022-11-24T15:08:30.900Z,7.23
2022-11-24T15:11:01.413Z,7.93
2022-11-24T15:13:33.604Z,8.10
2022-11-24T15:16:07.545Z,6.73
2022-11-24T15:18:43.079Z,6.10
2022-11-24T15:21:17.457Z,7.00
2022-11-24T15:24:06.938Z,6.63
2022-11-24T15:26:41.606Z,6.40
2022-11-24T15:29:11.177Z,7.47
2022-11-24T15:31:40.709Z,10.20
2022-11-24T15:34:14.505Z,8.60
2022-11-24T15:36:43.160Z,6.77
2022-11-24T15:39:13.225Z,7.53
2022-11-24T15:41:43.248Z,8.17
2022-11-24T15:44:12.096Z,6.90
2022-11-24T15:46:40.815Z,6.47
2022-11-24T15:49:09.333Z,7.00
2022-11-24T15:51:42.460Z,7.53
2022-11-24T15:54:14.888Z,7.77
2022-11-24T15:56:44.567Z,10.07
2022-11-24T15:59:20.387Z,6.60
2022-11-24T16:01:51.244Z,7.43
2022-11-24T16:04:19.873Z,7.23
2022-11-24T16:06:48.260Z,6.53
2022-11-24T16:09:18.202Z,7.37
2022-11-24T16:11:46.696Z,7.67
2022-11-24T16:14:15.613Z,7.57
2022-11-24T16:16:44.419Z,5.63
2022-11-24T16:19:12.996Z,8.30
2022-11-24T16:21:41.532Z,7.83
2022-11-24T16:24:10.524Z,6.20
2022-11-24T16:26:40.364Z,6.37
2022-11-24T16:29:08.937Z,5.27
2022-11-24T16:31:37.885Z,5.30
2022-11-24T16:34:08.198Z,5.33
2022-11-24T16:36:37.019Z,4.90
2022-11-24T16:39:05.840Z,5.60
2022-11-24T16:41:34.670Z,5.13
2022-11-24T16:44:06.850Z,5.30
2022-11-24T16:46:36.253Z,5.60
2022-11-24T16:49:05.145Z,5.60
2022-11-24T16:51:35.145Z,5.00
2022-11-24T16:54:05.049Z,6.33
2022-11-24T16:56:33.957Z,5.27
2022-11-24T16:59:04.398Z,5.13
2022-11-24T17:01:33.346Z,5.87
2022-11-24T17:04:02.043Z,4.90
2022-11-24T17:06:30.527Z,5.00
2022-11-24T17:08:59.369Z,4.50
2022-11-24T17:11:30.232Z,4.60
2022-11-24T17:13:59.375Z,5.00
2022-11-24T17:16:29.912Z,5.33
2022-11-24T17:19:00.064Z,5.50
2022-11-24T17:21:30.112Z,5.27
2022-11-24T17:24:01.531Z,5.73
2022-11-24T17:26:30.086Z,4.97
2022-11-24T17:28:58.948Z,5.47
2022-11-24T17:31:32.019Z,5.40
2022-11-24T17:34:01.649Z,5.03
2022-11-24T17:36:31.660Z,4.93
2022-11-24T17:39:00.671Z,4.90
2022-11-24T17:41:29.688Z,5.00
2022-11-24T17:43:58.258Z,4.73
2022-11-24T17:46:27.972Z,4.83
2022-11-24T17:48:58.341Z,5.07
2022-11-24T17:51:27.983Z,4.80
2022-11-24T17:53:57.497Z,5.17
2022-11-24T17:56:27.661Z,5.50
2022-11-24T17:58:57.729Z,5.80
2022-11-24T18:01:28.567Z,5.57
2022-11-24T18:03:59.060Z,5.20
2022-11-24T18:06:29.564Z,5.70
2022-11-24T18:08:59.190Z,5.10
2022-11-24T18:11:31.659Z,5.27
2022-11-24T18:14:04.942Z,5.47
2022-11-24T18:16:35.361Z,6.07
2022-11-24T18:19:10.941Z,6.47
2022-11-24T18:21:41.487Z,6.40
2022-11-24T18:24:11.479Z,6.57
2022-11-24T18:26:40.772Z,5.90
2022-11-24T18:29:09.840Z,7.53
2022-11-24T18:31:38.944Z,7.30
2022-11-24T18:34:09.122Z,6.77
2022-11-24T18:36:37.883Z,6.67
2022-11-24T18:39:08.666Z,6.77
2022-11-24T18:41:37.563Z,6.00
2022-11-24T18:44:08.434Z,6.60
2022-11-24T18:46:37.240Z,6.40
2022-11-24T18:49:07.591Z,6.37
2022-11-24T18:51:37.388Z,6.17
2022-11-24T18:54:06.079Z,5.97
2022-11-24T18:56:34.518Z,5.83
2022-11-24T18:59:02.881Z,5.60
2022-11-24T19:01:32.365Z,5.57
2022-11-24T19:04:03.339Z,5.00
2022-11-24T19:06:35.176Z,6.27
2022-11-24T19:09:07.129Z,5.60
2022-11-24T19:11:37.893Z,5.47
2022-11-24T19:14:10.071Z,6.03
2022-11-24T19:16:39.402Z,6.10
2022-11-24T19:19:09.529Z,6.47
2022-11-24T19:21:40.408Z,6.77
2022-11-24T19:24:11.636Z,5.87
2022-11-24T19:26:40.656Z,5.97
2022-11-24T19:29:09.603Z,7.00
2022-11-24T19:31:39.584Z,6.17
2022-11-24T19:34:08.956Z,6.30
2022-11-24T19:36:38.157Z,6.37
2022-11-24T19:39:06.853Z,6.40
2022-11-24T19:41:36.631Z,6.20
2022-11-24T19:44:05.326Z,6.23
2022-11-24T19:46:34.435Z,6.03
2022-11-24T19:49:04.586Z,5.90
2022-11-24T19:51:34.839Z,5.63
2022-11-24T19:54:03.931Z,6.00
2022-11-24T19:56:35.031Z,5.90
2022-11-24T19:59:06.938Z,5.80
2022-11-24T20:01:38.205Z,6.03
2022-11-24T20:04:10.391Z,5.83
2022-11-24T20:06:41.963Z,6.37
2022-11-24T20:09:11.934Z,5.60
2022-11-24T20:11:41.323Z,6.30
2022-11-24T20:14:14.022Z,6.23
2022-11-24T20:16:43.486Z,6.50
2022-11-24T20:19:13.705Z,7.27
2022-11-24T20:21:46.025Z,7.17
2022-11-24T20:24:16.601Z,8.20
2022-11-24T20:26:47.519Z,7.90
2022-11-24T20:29:18.067Z,7.27
2022-11-24T20:31:48.279Z,6.20
2022-11-24T20:34:17.999Z,6.70
2022-11-24T20:36:47.435Z,6.50
2022-11-24T20:39:18.066Z,6.57
2022-11-24T20:41:47.116Z,6.40
2022-11-24T20:44:18.753Z,6.93
2022-11-24T20:46:47.646Z,6.63
2022-11-24T20:49:18.715Z,6.47
2022-11-24T20:51:48.043Z,6.27
2022-11-24T20:54:18.538Z,7.30
2022-11-24T20:56:47.637Z,7.17
2022-11-24T20:59:21.302Z,6.97
2022-11-24T21:01:57.248Z,5.30
2022-11-24T21:04:27.919Z,5.90
2022-11-24T21:06:56.518Z,4.93
2022-11-24T21:09:27.166Z,5.33
2022-11-24T21:11:56.201Z,5.50
2022-11-24T21:14:30.028Z,4.90
2022-11-24T21:17:01.163Z,4.47
2022-11-24T21:19:29.702Z,4.60
2022-11-24T21:21:58.958Z,4.50
2022-11-24T21:24:31.048Z,4.73
2022-11-24T21:26:59.358Z,4.23
2022-11-24T21:29:29.395Z,4.13
2022-11-24T21:31:57.888Z,4.40
2022-11-24T21:34:26.985Z,4.50
2022-11-24T21:36:55.330Z,4.60
2022-11-24T21:39:23.804Z,4.73
2022-11-24T21:41:52.141Z,4.53
2022-11-24T21:44:20.626Z,4.10
2022-11-24T21:46:55.741Z,4.37
2022-11-24T21:49:24.822Z,4.33
2022-11-24T21:51:55.892Z,4.47
2022-11-24T21:54:24.979Z,4.80
2022-11-24T21:56:55.411Z,5.23
2022-11-24T21:59:23.845Z,4.90
2022-11-24T22:01:53.592Z,5.23
2022-11-24T22:04:22.488Z,4.60
2022-11-24T22:06:50.899Z,4.90
2022-11-24T22:09:19.442Z,4.57
2022-11-24T22:11:52.229Z,4.43
2022-11-24T22:14:20.773Z,4.57
2022-11-24T22:16:49.322Z,4.40
2022-11-24T22:19:20.105Z,3.83
2022-11-24T22:21:48.565Z,4.30
2022-11-24T22:24:17.224Z,4.10
2022-11-24T22:26:45.613Z,4.57
2022-11-24T22:29:14.261Z,4.13
2022-11-24T22:31:43.060Z,4.80
2022-11-24T22:34:11.464Z,3.67
2022-11-24T22:36:41.717Z,3.90
2022-11-24T22:39:13.188Z,4.17
2022-11-24T22:41:41.850Z,4.40
2022-11-24T22:44:10.443Z,4.10
2022-11-24T22:46:39.229Z,4.20
2022-11-24T22:49:08.095Z,4.13
2022-11-24T22:51:40.965Z,3.83
2022-11-24T22:54:14.313Z,4.00
2022-11-24T22:56:42.601Z,4.40
2022-11-24T22:59:10.917Z,4.40
2022-11-24T23:01:39.407Z,4.60
2022-11-24T23:04:08.020Z,4.33
2022-11-24T23:06:37.065Z,4.73
2022-11-24T23:09:07.641Z,5.97
2022-11-24T23:11:39.446Z,6.27
2022-11-24T23:14:12.660Z,4.63
2022-11-24T23:16:41.603Z,5.73
2022-11-24T23:19:10.720Z,5.30
2022-11-24T23:21:40.092Z,5.40
2022-11-24T23:24:11.728Z,5.40
2022-11-24T23:26:41.889Z,5.43
2022-11-24T23:29:11.874Z,5.80
2022-11-24T23:31:41.043Z,5.73
2022-11-24T23:34:09.898Z,6.27
2022-11-24T23:36:38.490Z,5.67
2022-11-24T23:39:12.170Z,5.70
2022-11-24T23:41:41.292Z,5.80
2022-11-24T23:44:10.435Z,5.80
2022-11-24T23:46:39.185Z,5.80
2022-11-24T23:49:07.791Z,5.47
2022-11-24T23:51:36.732Z,5.73
2022-11-24T23:54:10.590Z,6.27
2022-11-24T23:56:40.112Z,6.03
2022-11-24T23:59:12.219Z,5.50
